Time;durP1;ratioP1;P1;durP2;ratioP2;P2;SDS_P1;SDS_P2;PMS_P1;PMS_P2;Temp;Humidity;BMP_temperature;BMP_pressure;BME280_temperature;BME280_humidity;BME280_pressure;Samples;Min_cycle;Max_cycle;Signal;HPM_P1;HPM_P2
2023/03/23 00:02:32;;;;;;;5.13;2.72;;;15.30;99.90;;;;;;4936103;28;20489;-85
2023/03/23 00:05:00;;;;;;;3.50;2.50;;;15.30;99.90;;;;;;4915791;28;20695;-90
2023/03/23 00:07:27;;;;;;;3.70;2.30;;;15.30;99.90;;;;;;4937898;29;20106;-88
2023/03/23 00:09:54;;;;;;;3.42;2.40;;;15.40;99.90;;;;;;4927395;28;20363;-90
2023/03/23 00:12:34;;;;;;;3.28;2.40;;;15.40;99.90;;;;;;4937952;28;20061;-89
2023/03/23 00:15:12;;;;;;;3.58;2.58;;;15.40;99.90;;;;;;4935951;29;20265;-87
2023/03/23 00:17:39;;;;;;;3.28;2.30;;;15.40;99.90;;;;;;4931738;28;20039;-86
2023/03/23 00:20:06;;;;;;;4.10;2.57;;;15.50;99.90;;;;;;4915679;28;20102;-91
2023/03/23 00:22:37;;;;;;;4.22;2.58;;;15.50;99.90;;;;;;4935345;28;20027;-88
2023/03/23 00:25:04;;;;;;;3.70;2.58;;;15.50;99.90;;;;;;4935421;28;20027;-87
2023/03/23 00:27:29;;;;;;;5.78;2.92;;;15.50;99.90;;;;;;4936055;28;20058;-87
2023/03/23 00:29:56;;;;;;;5.47;3.10;;;15.50;99.90;;;;;;4935636;28;20820;-86
2023/03/23 00:32:27;;;;;;;5.47;2.90;;;15.50;99.90;;;;;;4940224;28;20059;-86
2023/03/23 00:34:53;;;;;;;5.07;2.80;;;15.50;99.90;;;;;;4913158;28;20571;-86
2023/03/23 00:37:19;;;;;;;4.60;2.58;;;15.50;99.90;;;;;;4935992;28;20126;-86
2023/03/23 00:39:46;;;;;;;4.40;2.67;;;15.50;99.90;;;;;;4929840;29;20181;-87
2023/03/23 00:42:16;;;;;;;4.15;2.80;;;15.50;99.90;;;;;;4914027;29;20042;-86
2023/03/23 00:44:43;;;;;;;5.10;3.40;;;15.50;99.90;;;;;;4933218;28;20135;-86
2023/03/23 00:47:10;;;;;;;6.22;3.00;;;15.50;99.90;;;;;;4936311;28;20036;-89
2023/03/23 00:49:36;;;;;;;3.65;2.60;;;15.50;99.90;;;;;;4916280;28;20023;-87
2023/03/23 00:52:05;;;;;;;4.53;3.03;;;15.40;99.90;;;;;;4915047;29;20046;-88
2023/03/23 00:54:31;;;;;;;4.82;3.00;;;15.50;99.90;;;;;;4932841;29;20027;-88
2023/03/23 00:56:57;;;;;;;4.38;2.90;;;15.40;99.90;;;;;;4927712;28;20051;-87
2023/03/23 00:59:23;;;;;;;4.10;2.90;;;15.50;99.90;;;;;;4929932;28;20114;-86
2023/03/23 01:01:49;;;;;;;4.87;3.10;;;15.40;99.90;;;;;;4916787;29;20023;-89
2023/03/23 01:04:15;;;;;;;4.20;2.88;;;15.50;99.90;;;;;;4937525;28;20078;-88
2023/03/23 01:06:43;;;;;;;3.50;2.40;;;15.50;99.90;;;;;;4896854;29;20035;-87
2023/03/23 01:09:14;;;;;;;3.35;2.50;;;15.50;99.90;;;;;;4938378;28;20035;-90
2023/03/23 01:11:44;;;;;;;5.03;2.77;;;15.50;99.90;;;;;;4930961;28;20432;-88
2023/03/23 01:14:10;;;;;;;3.60;2.50;;;15.50;99.90;;;;;;4933637;28;20285;-87
2023/03/23 01:16:36;;;;;;;3.75;2.67;;;15.50;99.90;;;;;;4931141;29;20019;-85
2023/03/23 01:19:02;;;;;;;4.10;2.50;;;15.50;99.90;;;;;;4938348;28;20343;-86
2023/03/23 01:21:28;;;;;;;3.20;2.20;;;15.50;99.90;;;;;;4930530;28;20037;-87
2023/03/23 01:23:53;;;;;;;4.68;2.53;;;15.50;99.90;;;;;;4937404;28;20027;-90
2023/03/23 01:26:22;;;;;;;3.93;2.57;;;15.50;99.90;;;;;;4953405;28;21056;-85
2023/03/23 01:28:49;;;;;;;3.08;2.22;;;15.50;99.90;;;;;;4926113;29;20826;-89
2023/03/23 01:31:21;;;;;;;3.33;2.28;;;15.50;99.90;;;;;;4938684;29;20102;-90
2023/03/23 01:33:48;;;;;;;3.67;2.28;;;15.50;99.90;;;;;;4931508;28;20027;-88
2023/03/23 01:36:16;;;;;;;3.93;2.17;;;15.60;99.90;;;;;;4932737;28;20019;-87
2023/03/23 01:38:44;;;;;;;3.53;2.30;;;15.60;99.90;;;;;;4907964;28;20540;-88
2023/03/23 01:41:10;;;;;;;4.38;2.92;;;15.60;99.90;;;;;;4934234;28;20042;-87
2023/03/23 01:43:53;;;;;;;3.85;2.53;;;15.60;99.90;;;;;;4936053;28;20417;-86
2023/03/23 01:46:18;;;;;;;3.58;2.47;;;15.60;99.90;;;;;;4943637;28;20035;-89
2023/03/23 01:48:45;;;;;;;4.53;2.63;;;15.60;99.90;;;;;;4935110;29;20063;-87
2023/03/23 01:51:17;;;;;;;4.07;2.67;;;15.60;99.90;;;;;;4932096;29;20756;-90
2023/03/23 01:53:51;;;;;;;4.28;2.80;;;15.60;99.90;;;;;;4916238;28;20303;-86
2023/03/23 01:56:20;;;;;;;4.53;2.60;;;15.60;99.90;;;;;;4936243;28;20027;-88
2023/03/23 01:58:46;;;;;;;3.83;2.60;;;15.60;99.90;;;;;;4949220;28;20159;-86
2023/03/23 02:01:14;;;;;;;4.03;2.55;;;15.60;99.90;;;;;;4928552;28;20043;-88
2023/03/23 02:03:43;;;;;;;4.78;2.88;;;15.50;99.90;;;;;;4914292;29;20400;-87
2023/03/23 02:06:09;;;;;;;4.28;2.85;;;15.50;99.90;;;;;;4919381;28;20027;-89
2023/03/23 02:08:36;;;;;;;3.77;2.40;;;15.60;99.90;;;;;;4935857;29;20031;-86
2023/03/23 02:11:12;;;;;;;3.47;2.38;;;15.50;99.90;;;;;;4914337;28;20027;-87
2023/03/23 02:13:38;;;;;;;3.30;2.10;;;15.50;99.90;;;;;;4918129;28;20019;-87
2023/03/23 02:16:29;;;;;;;3.30;2.57;;;15.50;99.90;;;;;;4930587;29;20341;-87
2023/03/23 02:19:06;;;;;;;3.80;2.50;;;15.50;99.90;;;;;;4933337;28;20587;-87
2023/03/23 02:21:55;;;;;;;4.50;2.60;;;15.50;99.90;;;;;;4917186;28;20027;-88
2023/03/23 02:24:42;;;;;;;3.97;2.10;;;15.50;99.90;;;;;;4935008;29;20117;-88
2023/03/23 02:27:42;;;;;;;2.85;2.00;;;15.50;99.90;;;;;;4926595;28;20107;-87
2023/03/23 02:30:15;;;;;;;3.40;2.17;;;15.60;99.90;;;;;;4933304;29;20320;-86
2023/03/23 02:32:52;;;;;;;4.25;2.25;;;15.60;99.90;;;;;;4943143;28;20027;-88
2023/03/23 02:35:40;;;;;;;4.53;2.40;;;15.50;99.90;;;;;;4947776;28;20406;-89
2023/03/23 02:38:16;;;;;;;3.47;2.20;;;15.50;99.90;;;;;;4915614;29;20027;-85
2023/03/23 02:40:45;;;;;;;4.95;2.20;;;15.50;99.90;;;;;;4921297;29;20698;-89
2023/03/23 02:43:15;;;;;;;4.07;2.40;;;15.50;99.90;;;;;;4910569;28;20465;-91
2023/03/23 02:45:43;;;;;;;3.92;2.13;;;15.50;99.90;;;;;;4920523;28;20027;-88
2023/03/23 02:48:10;;;;;;;3.92;2.10;;;15.50;99.90;;;;;;4940511;28;20659;-87
2023/03/23 02:50:37;;;;;;;3.33;1.63;;;15.50;99.90;;;;;;4920589;29;20505;-87
2023/03/23 02:53:08;;;;;;;2.88;1.75;;;15.50;99.90;;;;;;4946127;28;20049;-87
2023/03/23 02:55:35;;;;;;;3.23;1.63;;;15.50;99.90;;;;;;4921372;29;20046;-88
2023/03/23 02:58:01;;;;;;;2.33;1.60;;;15.50;99.90;;;;;;4907346;28;20031;-86
2023/03/23 03:00:27;;;;;;;2.30;1.50;;;15.40;99.90;;;;;;4932422;29;21333;-92
2023/03/23 03:02:56;;;;;;;3.85;1.40;;;15.50;99.90;;;;;;4929881;28;20027;-89
2023/03/23 03:05:40;;;;;;;3.00;1.42;;;15.50;99.90;;;;;;4921767;29;20424;-90
2023/03/23 03:08:13;;;;;;;2.07;1.20;;;15.50;99.90;;;;;;4916438;29;20544;-86
2023/03/23 03:10:58;;;;;;;2.28;1.23;;;15.40;99.90;;;;;;4931593;28;20034;-88
2023/03/23 03:13:52;;;;;;;1.92;1.17;;;15.50;99.90;;;;;;4909481;28;20039;-87
2023/03/23 03:16:40;;;;;;;2.45;1.30;;;15.40;99.90;;;;;;4941847;28;20272;-87
2023/03/23 03:19:14;;;;;;;3.35;1.30;;;15.40;99.90;;;;;;4944840;28;20460;-89
2023/03/23 03:21:42;;;;;;;2.00;1.20;;;15.40;99.90;;;;;;4930690;28;20489;-88
2023/03/23 03:24:11;;;;;;;1.85;1.05;;;15.40;99.90;;;;;;4933124;28;20184;-86
2023/03/23 03:26:45;;;;;;;1.88;1.05;;;15.40;99.90;;;;;;4933944;28;20043;-88
2023/03/23 03:29:11;;;;;;;3.45;1.23;;;15.40;99.90;;;;;;4914009;28;20032;-87
2023/03/23 03:31:40;;;;;;;3.92;1.30;;;15.40;99.90;;;;;;4918123;29;20046;-86
2023/03/23 03:34:06;;;;;;;1.53;0.90;;;15.40;99.90;;;;;;4929978;28;20062;-89
2023/03/23 03:36:34;;;;;;;1.50;0.98;;;15.40;99.90;;;;;;4940044;28;20221;-89
2023/03/23 03:39:09;;;;;;;3.90;1.25;;;15.40;99.90;;;;;;4921382;29;20437;-86
2023/03/23 03:41:36;;;;;;;2.25;1.10;;;15.30;99.90;;;;;;4954566;28;20035;-88
2023/03/23 03:44:03;;;;;;;3.85;1.10;;;15.30;99.90;;;;;;4939973;28;20050;-85
2023/03/23 03:46:30;;;;;;;2.03;1.10;;;15.30;99.90;;;;;;4916754;28;20035;-87
2023/03/23 03:48:57;;;;;;;2.30;1.02;;;15.30;99.90;;;;;;4935677;28;21561;-86
2023/03/23 03:51:24;;;;;;;1.58;0.90;;;15.30;99.90;;;;;;4917417;29;20293;-85
2023/03/23 03:53:50;;;;;;;3.75;1.10;;;15.40;99.90;;;;;;4953844;28;20110;-87
2023/03/23 03:56:16;;;;;;;3.03;1.00;;;15.40;99.90;;;;;;4938489;28;20365;-89
2023/03/23 03:58:42;;;;;;;2.75;1.40;;;15.30;99.90;;;;;;4937565;28;20426;-86
2023/03/23 04:01:12;;;;;;;3.78;1.13;;;15.30;99.90;;;;;;4913272;28;20774;-86
2023/03/23 04:03:38;;;;;;;1.83;1.03;;;15.40;99.90;;;;;;4920558;29;20027;-88
2023/03/23 04:06:05;;;;;;;2.85;0.90;;;15.30;99.90;;;;;;4927339;28;20039;-86
2023/03/23 04:08:31;;;;;;;1.75;0.90;;;15.40;99.90;;;;;;4922283;29;20055;-85
2023/03/23 04:10:57;;;;;;;2.03;0.88;;;15.40;99.90;;;;;;4949422;28;20030;-85
2023/03/23 04:13:23;;;;;;;3.40;1.00;;;15.40;99.90;;;;;;4919146;29;20047;-89
2023/03/23 04:15:49;;;;;;;3.65;1.10;;;15.40;99.90;;;;;;4936516;28;20027;-87
2023/03/23 04:18:17;;;;;;;2.78;1.10;;;15.40;99.90;;;;;;4897178;28;20264;-86
2023/03/23 04:20:46;;;;;;;3.47;1.27;;;15.40;99.90;;;;;;4932666;28;20035;-89
2023/03/23 04:23:25;;;;;;;2.90;1.17;;;15.40;99.90;;;;;;4929294;28;20028;-88
2023/03/23 04:25:53;;;;;;;2.10;1.08;;;15.40;99.90;;;;;;4936110;28;20070;-86
2023/03/23 04:28:23;;;;;;;2.28;1.20;;;15.40;99.90;;;;;;4948105;28;20186;-88
2023/03/23 04:30:52;;;;;;;1.67;1.08;;;15.40;99.90;;;;;;4935368;28;20019;-86
2023/03/23 04:33:19;;;;;;;3.70;1.20;;;15.40;99.90;;;;;;4915770;28;20212;-88
2023/03/23 04:35:47;;;;;;;4.25;1.38;;;15.40;99.90;;;;;;4922903;29;20020;-88
2023/03/23 04:38:16;;;;;;;2.40;1.10;;;15.40;99.90;;;;;;4930629;28;20035;-90
2023/03/23 04:40:43;;;;;;;3.63;1.25;;;15.40;99.90;;;;;;4953286;28;20039;-87
2023/03/23 04:43:11;;;;;;;3.63;1.17;;;15.30;99.90;;;;;;4924554;28;20031;-87
2023/03/23 04:45:41;;;;;;;3.10;1.30;;;15.30;99.90;;;;;;4921732;29;20126;-87
2023/03/23 04:48:07;;;;;;;3.33;1.10;;;15.30;99.90;;;;;;4933443;29;20437;-90
2023/03/23 04:50:34;;;;;;;5.22;1.33;;;15.30;99.90;;;;;;4912217;28;20020;-86
2023/03/23 04:53:03;;;;;;;3.63;1.20;;;15.30;99.90;;;;;;4931407;29;20053;-87
2023/03/23 04:55:36;;;;;;;3.65;1.25;;;15.30;99.90;;;;;;4952320;28;20474;-88
2023/03/23 04:58:03;;;;;;;4.80;1.20;;;15.30;99.90;;;;;;4935472;28;20377;-86
2023/03/23 05:00:29;;;;;;;2.78;1.15;;;15.30;99.90;;;;;;4951394;28;20031;-85
2023/03/23 05:02:55;;;;;;;3.13;1.20;;;15.30;99.90;;;;;;4947842;28;20222;-87
2023/03/23 05:05:22;;;;;;;2.20;0.90;;;15.30;99.90;;;;;;4904367;28;20027;-89
2023/03/23 05:07:48;;;;;;;2.65;0.98;;;15.30;99.90;;;;;;4910553;29;20210;-87
2023/03/23 05:10:16;;;;;;;3.58;1.30;;;15.30;99.90;;;;;;4921785;29;20477;-87
2023/03/23 05:12:42;;;;;;;3.88;1.02;;;15.30;99.90;;;;;;4931695;29;20025;-88
2023/03/23 05:15:10;;;;;;;2.67;0.90;;;15.20;99.90;;;;;;4921318;29;20035;-86
2023/03/23 05:17:36;;;;;;;3.90;0.98;;;15.20;99.90;;;;;;4932788;28;20031;-88
2023/03/23 05:20:04;;;;;;;4.45;1.17;;;15.10;99.90;;;;;;4926678;28;20026;-90
2023/03/23 05:22:32;;;;;;;2.85;0.90;;;15.10;99.90;;;;;;4915607;29;20158;-86
2023/03/23 05:24:58;;;;;;;3.28;0.90;;;15.10;99.90;;;;;;4947020;28;20252;-88
2023/03/23 05:27:27;;;;;;;2.57;1.30;;;15.10;99.90;;;;;;4938817;28;20023;-88
2023/03/23 05:29:53;;;;;;;2.45;1.02;;;15.00;99.90;;;;;;4948922;28;20062;-87
2023/03/23 05:32:19;;;;;;;2.92;1.00;;;15.00;99.90;;;;;;4916911;29;20039;-86
2023/03/23 05:34:46;;;;;;;3.23;1.10;;;15.00;99.90;;;;;;4915336;28;20292;-89
2023/03/23 05:37:13;;;;;;;4.05;1.00;;;15.00;99.90;;;;;;4924394;29;20452;-86
2023/03/23 05:39:39;;;;;;;2.83;0.98;;;15.00;99.90;;;;;;4928524;28;20496;-89
2023/03/23 05:42:06;;;;;;;2.67;1.00;;;15.00;99.90;;;;;;4919148;29;20026;-88
2023/03/23 05:44:31;;;;;;;2.83;1.00;;;15.00;99.90;;;;;;4935701;28;20058;-86
2023/03/23 05:46:57;;;;;;;3.38;1.13;;;15.00;99.90;;;;;;4917751;29;20217;-87
2023/03/23 05:49:24;;;;;;;2.20;0.98;;;15.00;99.90;;;;;;4952493;28;20402;-87
2023/03/23 05:51:50;;;;;;;3.43;1.10;;;15.00;99.90;;;;;;4900269;28;20637;-88
2023/03/23 05:54:16;;;;;;;2.55;0.90;;;15.00;99.90;;;;;;4932845;29;20027;-84
2023/03/23 05:56:42;;;;;;;3.70;1.30;;;15.00;99.90;;;;;;4930520;28;20697;-87
2023/03/23 05:59:08;;;;;;;3.00;1.05;;;15.10;99.90;;;;;;4936282;29;20028;-86
2023/03/23 06:01:34;;;;;;;3.67;1.10;;;15.10;99.90;;;;;;4903564;28;20106;-86
2023/03/23 06:03:59;;;;;;;3.25;1.00;;;15.00;99.90;;;;;;4930326;28;20031;-87
2023/03/23 06:06:26;;;;;;;2.78;1.10;;;15.10;99.90;;;;;;4896561;28;20038;-85
2023/03/23 06:08:52;;;;;;;3.47;1.10;;;15.10;99.90;;;;;;4923526;28;20449;-86
2023/03/23 06:11:18;;;;;;;2.22;1.00;;;15.00;99.90;;;;;;4926475;28;20275;-90
2023/03/23 06:13:44;;;;;;;3.22;1.10;;;15.00;99.90;;;;;;4950691;28;20023;-87
2023/03/23 06:16:10;;;;;;;2.83;1.20;;;15.00;99.90;;;;;;4929431;28;20039;-87
2023/03/23 06:18:36;;;;;;;2.63;1.07;;;15.00;99.90;;;;;;4918234;29;20038;-85
2023/03/23 06:21:05;;;;;;;4.72;1.40;;;15.00;99.90;;;;;;4902235;28;20058;-87
2023/03/23 06:23:31;;;;;;;2.65;1.23;;;15.00;99.90;;;;;;4934968;28;20030;-88
2023/03/23 06:26:05;;;;;;;3.83;1.10;;;15.00;99.90;;;;;;4911650;29;20035;-85
2023/03/23 06:28:31;;;;;;;2.25;1.00;;;15.00;99.90;;;;;;4934753;28;20031;-87
2023/03/23 06:31:06;;;;;;;3.38;1.20;;;15.10;99.90;;;;;;4946416;28;20027;-86
2023/03/23 06:33:36;;;;;;;1.98;1.10;;;15.00;99.90;;;;;;4937133;28;20027;-86
2023/03/23 06:36:02;;;;;;;2.47;1.20;;;15.10;99.90;;;;;;4941897;28;20564;-86
2023/03/23 06:38:28;;;;;;;2.50;1.30;;;15.10;99.90;;;;;;4910943;28;20030;-88
2023/03/23 06:40:55;;;;;;;2.88;1.00;;;15.10;99.90;;;;;;4927694;29;20031;-86
2023/03/23 06:43:21;;;;;;;3.83;1.30;;;15.10;99.90;;;;;;4937879;28;20429;-90
2023/03/23 06:45:47;;;;;;;4.10;1.23;;;15.20;99.90;;;;;;4931263;28;20039;-87
2023/03/23 06:48:13;;;;;;;2.90;1.40;;;15.20;99.90;;;;;;4935590;28;20407;-87
2023/03/23 06:50:41;;;;;;;3.67;1.13;;;15.20;99.90;;;;;;4945587;28;20467;-87
2023/03/23 06:53:07;;;;;;;2.25;0.90;;;15.10;99.90;;;;;;4911207;28;20027;-89
2023/03/23 06:55:33;;;;;;;1.77;0.60;;;15.00;99.90;;;;;;4912928;29;20137;-85
2023/03/23 06:58:01;;;;;;;0.85;0.55;;;14.80;99.90;;;;;;4930467;28;20027;-89
2023/03/23 07:00:27;;;;;;;0.70;0.50;;;14.60;99.90;;;;;;4914123;29;20137;-84
2023/03/23 07:02:52;;;;;;;0.75;0.60;;;14.40;99.90;;;;;;4933119;28;20031;-90
2023/03/23 07:05:19;;;;;;;0.80;0.50;;;14.20;99.90;;;;;;4931928;28;20034;-88
2023/03/23 07:07:45;;;;;;;0.63;0.50;;;14.10;99.90;;;;;;4931315;29;20282;-89
2023/03/23 07:10:11;;;;;;;0.77;0.50;;;13.90;99.90;;;;;;4912191;28;20027;-88
2023/03/23 07:12:37;;;;;;;0.88;0.50;;;13.80;99.90;;;;;;4929891;28;20042;-86
2023/03/23 07:15:04;;;;;;;1.20;0.65;;;13.70;99.90;;;;;;4934387;28;20286;-87
2023/03/23 07:17:31;;;;;;;0.63;0.50;;;13.60;99.90;;;;;;4930383;28;20051;-87
2023/03/23 07:19:57;;;;;;;1.23;0.40;;;13.50;99.90;;;;;;4950869;28;20034;-90
2023/03/23 07:22:22;;;;;;;1.10;0.70;;;13.30;99.90;;;;;;4913739;29;20031;-86
2023/03/23 07:24:48;;;;;;;1.50;0.50;;;13.30;99.90;;;;;;4903454;28;20244;-90
2023/03/23 07:27:14;;;;;;;1.23;0.50;;;13.20;99.90;;;;;;4939138;28;20039;-86
2023/03/23 07:29:39;;;;;;;1.10;0.50;;;13.10;99.90;;;;;;4932633;29;20872;-88
2023/03/23 07:32:08;;;;;;;0.60;0.47;;;13.00;99.90;;;;;;4947963;28;20031;-87
2023/03/23 07:34:34;;;;;;;0.65;0.65;;;12.90;99.90;;;;;;4930005;28;20054;-86
2023/03/23 07:37:00;;;;;;;1.40;0.50;;;12.90;99.90;;;;;;4932711;29;20019;-87
2023/03/23 07:39:25;;;;;;;0.90;0.40;;;12.80;99.90;;;;;;4922293;28;20031;-87
2023/03/23 07:41:51;;;;;;;0.60;0.40;;;12.80;99.90;;;;;;4907526;28;20323;-88
2023/03/23 07:44:17;;;;;;;1.38;0.40;;;12.80;99.90;;;;;;4927970;29;20616;-87
2023/03/23 07:46:43;;;;;;;0.93;0.50;;;12.70;99.90;;;;;;4911851;29;20129;-86
2023/03/23 07:49:10;;;;;;;0.70;0.40;;;12.70;99.90;;;;;;4932326;29;20032;-87
2023/03/23 07:51:38;;;;;;;1.20;0.50;;;12.60;99.90;;;;;;4927512;28;20027;-87
2023/03/23 07:54:04;;;;;;;0.60;0.40;;;12.60;99.90;;;;;;4943911;28;20031;-87
2023/03/23 07:56:30;;;;;;;0.83;0.53;;;12.60;99.90;;;;;;4924019;28;20027;-87
2023/03/23 07:58:56;;;;;;;1.90;0.65;;;12.60;99.90;;;;;;4935522;28;20093;-86
2023/03/23 08:01:23;;;;;;;1.52;0.50;;;12.60;99.90;;;;;;4920601;28;20725;-87
2023/03/23 08:03:50;;;;;;;2.22;0.60;;;12.60;99.90;;;;;;4936261;28;20050;-86
2023/03/23 08:06:16;;;;;;;1.27;0.60;;;12.60;99.90;;;;;;4913634;29;20106;-87
2023/03/23 08:08:41;;;;;;;1.20;0.50;;;12.60;99.90;;;;;;4931435;28;20035;-87
2023/03/23 08:11:07;;;;;;;0.70;0.50;;;12.60;99.90;;;;;;4908588;28;20034;-87
2023/03/23 08:13:34;;;;;;;1.40;0.70;;;12.60;99.90;;;;;;4951445;28;20110;-87
2023/03/23 08:16:03;;;;;;;1.15;0.50;;;12.60;99.90;;;;;;4935816;29;20094;-88
2023/03/23 08:18:29;;;;;;;1.05;0.50;;;12.60;99.90;;;;;;4936202;28;20034;-87
2023/03/23 08:20:55;;;;;;;1.58;0.65;;;12.70;99.90;;;;;;4945568;28;20328;-87
2023/03/23 08:23:21;;;;;;;1.13;0.60;;;12.70;99.90;;;;;;4935074;29;20302;-88
2023/03/23 08:25:48;;;;;;;0.80;0.70;;;12.80;99.90;;;;;;4911114;28;20983;-87
2023/03/23 08:28:14;;;;;;;1.38;0.80;;;12.90;99.90;;;;;;4932900;28;20524;-87
2023/03/23 08:30:40;;;;;;;0.90;0.70;;;12.90;99.90;;;;;;4935205;28;20032;-87
2023/03/23 08:33:08;;;;;;;1.40;0.80;;;12.90;99.90;;;;;;4921240;29;20031;-88
2023/03/23 08:35:34;;;;;;;1.52;0.70;;;13.00;99.90;;;;;;4950423;28;20047;-87
2023/03/23 08:38:00;;;;;;;1.48;0.70;;;13.00;99.90;;;;;;4939185;28;20023;-90
2023/03/23 08:40:26;;;;;;;1.20;0.60;;;13.10;99.90;;;;;;4918022;29;20492;-89
2023/03/23 08:42:52;;;;;;;1.85;0.80;;;13.10;99.90;;;;;;4905679;28;20594;-89
2023/03/23 08:45:22;;;;;;;2.25;0.80;;;13.10;99.90;;;;;;4936025;29;20045;-89
2023/03/23 08:47:55;;;;;;;1.45;0.80;;;13.10;99.90;;;;;;4923800;29;20505;-90
2023/03/23 08:50:25;;;;;;;1.77;0.80;;;13.10;99.90;;;;;;4951586;28;20046;-89
2023/03/23 08:52:51;;;;;;;1.20;0.70;;;13.10;99.90;;;;;;4925788;29;20031;-89
2023/03/23 08:55:17;;;;;;;2.58;0.80;;;13.10;99.90;;;;;;4937940;29;20028;-89
2023/03/23 08:57:44;;;;;;;2.83;0.88;;;13.10;99.90;;;;;;4908430;28;20141;-87
2023/03/23 09:00:19;;;;;;;1.83;0.73;;;13.10;99.90;;;;;;4923468;29;20028;-88
2023/03/23 09:02:50;;;;;;;3.03;0.90;;;13.10;99.90;;;;;;4931155;29;20421;-88
2023/03/23 09:05:17;;;;;;;2.83;0.93;;;13.10;99.90;;;;;;4954771;28;20481;-87
2023/03/23 09:07:47;;;;;;;1.73;0.70;;;13.10;99.90;;;;;;4929072;29;20115;-88
2023/03/23 09:10:14;;;;;;;2.15;0.80;;;13.10;99.90;;;;;;4933431;28;20162;-88
2023/03/23 09:12:41;;;;;;;1.55;0.80;;;13.10;99.90;;;;;;4924298;28;20547;-88
2023/03/23 09:15:08;;;;;;;1.33;0.70;;;13.10;99.90;;;;;;4929422;28;20035;-87
2023/03/23 09:17:44;;;;;;;0.98;0.70;;;13.20;99.90;;;;;;4917711;29;20366;-88
2023/03/23 09:20:13;;;;;;;2.58;0.88;;;13.20;99.90;;;;;;4925863;28;20640;-88
2023/03/23 09:22:44;;;;;;;1.13;0.77;;;13.30;99.90;;;;;;4919876;29;20023;-89
2023/03/23 09:25:15;;;;;;;2.60;0.70;;;13.40;99.90;;;;;;4932572;28;20114;-88
2023/03/23 09:27:42;;;;;;;2.70;0.93;;;13.50;99.90;;;;;;4935949;29;20019;-90
2023/03/23 09:30:14;;;;;;;2.20;0.90;;;13.60;99.90;;;;;;4903291;29;20031;-89
2023/03/23 09:32:39;;;;;;;2.22;0.80;;;13.70;99.90;;;;;;4936187;28;20224;-89
2023/03/23 09:35:13;;;;;;;1.63;0.70;;;13.80;99.90;;;;;;4934691;29;20015;-89
2023/03/23 09:37:40;;;;;;;1.90;0.90;;;14.00;99.90;;;;;;4935443;29;20024;-90
2023/03/23 09:40:13;;;;;;;1.60;0.80;;;14.20;99.90;;;;;;4933606;29;20261;-91
2023/03/23 09:43:03;;;;;;;1.08;0.73;;;14.60;99.90;;;;;;4935151;28;20023;-89
2023/03/23 09:45:56;;;;;;;1.35;0.73;;;14.90;99.90;;;;;;4916223;29;20055;-88
2023/03/23 09:48:33;;;;;;;2.00;0.73;;;15.30;99.90;;;;;;4943211;28;20040;-88
2023/03/23 09:51:38;;;;;;;1.80;0.70;;;15.70;99.90;;;;;;4929312;28;20031;-89
2023/03/23 09:54:25;;;;;;;2.10;0.65;;;16.20;99.90;;;;;;4913018;29;20229;-90
2023/03/23 09:56:51;;;;;;;1.38;0.70;;;16.70;99.90;;;;;;4904643;29;20035;-88
2023/03/23 09:59:39;;;;;;;2.50;0.70;;;17.20;99.90;;;;;;4929565;29;20050;-89
2023/03/23 10:02:14;;;;;;;1.92;0.82;;;17.60;99.90;;;;;;4912540;28;20043;-88
2023/03/23 10:04:54;;;;;;;1.73;0.87;;;18.00;99.90;;;;;;4932422;28;20413;-87
2023/03/23 10:07:23;;;;;;;1.27;0.70;;;18.40;99.90;;;;;;4926628;28;20453;-90
2023/03/23 10:09:56;;;;;;;1.73;0.80;;;18.80;99.90;;;;;;4914140;29;20355;-88
2023/03/23 10:12:31;;;;;;;1.23;0.80;;;19.10;99.90;;;;;;4930305;28;20122;-87
2023/03/23 10:15:09;;;;;;;2.17;0.70;;;19.20;99.90;;;;;;4919101;29;20023;-87
2023/03/23 10:17:49;;;;;;;1.07;0.80;;;19.30;99.90;;;;;;4912922;29;21801;-87
2023/03/23 10:20:28;;;;;;;1.38;0.90;;;19.30;99.90;;;;;;4929461;28;20035;-87
2023/03/23 10:23:32;;;;;;;1.98;0.90;;;19.20;99.90;;;;;;4924215;28;20028;-88
2023/03/23 10:26:12;;;;;;;2.42;1.10;;;19.10;99.90;;;;;;4921869;28;20031;-88
2023/03/23 10:28:46;;;;;;;2.55;1.08;;;18.90;99.20;;;;;;4932600;29;20021;-88
2023/03/23 10:31:21;;;;;;;1.93;0.97;;;18.70;99.90;;;;;;4929279;28;20756;-85
2023/03/23 10:33:54;;;;;;;1.55;1.00;;;18.50;99.90;;;;;;4953150;28;20027;-87
2023/03/23 10:36:37;;;;;;;1.58;1.23;;;18.30;99.90;;;;;;4934365;28;20024;-87
2023/03/23 10:39:14;;;;;;;2.30;1.08;;;18.20;99.90;;;;;;4923865;29;20260;-90
2023/03/23 10:41:40;;;;;;;2.20;0.95;;;18.00;99.90;;;;;;4921682;28;20106;-87
2023/03/23 10:44:20;;;;;;;2.27;1.00;;;17.80;99.90;;;;;;4918469;28;20062;-86
2023/03/23 10:47:07;;;;;;;3.63;1.40;;;17.70;99.90;;;;;;4929810;28;20031;-85
2023/03/23 10:49:54;;;;;;;2.58;1.10;;;17.60;99.90;;;;;;4915556;29;20028;-87
2023/03/23 10:52:38;;;;;;;3.08;0.90;;;17.50;99.90;;;;;;4937871;28;20023;-87
2023/03/23 10:55:09;;;;;;;2.38;1.10;;;17.40;99.90;;;;;;4949991;28;20225;-86
2023/03/23 10:57:39;;;;;;;2.47;0.90;;;17.40;99.90;;;;;;4920147;29;20571;-87
2023/03/23 11:00:17;;;;;;;2.17;1.10;;;17.20;99.90;;;;;;4947674;28;20093;-85
2023/03/23 11:03:07;;;;;;;2.78;1.13;;;17.20;99.90;;;;;;4915253;28;20481;-87
2023/03/23 11:05:50;;;;;;;2.90;1.15;;;17.20;99.90;;;;;;4926787;28;20409;-86
2023/03/23 11:08:25;;;;;;;2.35;1.10;;;17.20;99.90;;;;;;4938784;28;20307;-86
2023/03/23 11:10:52;;;;;;;2.23;1.10;;;17.20;99.90;;;;;;4930601;29;20031;-86
2023/03/23 11:13:20;;;;;;;3.22;1.00;;;17.20;99.90;;;;;;4919448;28;20428;-85
2023/03/23 11:15:47;;;;;;;2.25;1.15;;;17.10;99.90;;;;;;4918568;28;20189;-85
2023/03/23 11:18:21;;;;;;;2.88;1.30;;;17.10;99.90;;;;;;4898329;29;20031;-89
2023/03/23 11:20:53;;;;;;;3.72;1.40;;;17.20;99.90;;;;;;4952550;28;20276;-87
2023/03/23 11:23:31;;;;;;;2.43;1.10;;;17.30;99.90;;;;;;4924753;29;20515;-87
2023/03/23 11:26:14;;;;;;;2.90;1.10;;;17.60;99.90;;;;;;4930868;28;20900;-86
2023/03/23 11:29:10;;;;;;;2.63;1.30;;;18.00;99.90;;;;;;4924816;29;20500;-86
2023/03/23 11:32:05;;;;;;;4.22;1.38;;;18.40;99.90;;;;;;4919283;29;20424;-88
2023/03/23 11:34:35;;;;;;;2.83;1.33;;;19.00;99.90;;;;;;4917079;28;20032;-86
2023/03/23 11:37:04;;;;;;;3.63;1.30;;;19.30;99.90;;;;;;4927751;29;20051;-87
2023/03/23 11:39:32;;;;;;;2.20;1.08;;;19.70;99.90;;;;;;4913456;29;20387;-87
2023/03/23 11:42:00;;;;;;;3.15;1.23;;;20.00;99.90;;;;;;4931038;28;20137;-88
2023/03/23 11:44:44;;;;;;;4.22;1.27;;;20.30;99.90;;;;;;4918171;28;20052;-87
2023/03/23 11:47:35;;;;;;;4.07;1.20;;;20.40;99.90;;;;;;4929484;28;20521;-86
2023/03/23 11:50:03;;;;;;;2.87;1.20;;;20.50;98.90;;;;;;4909916;28;20078;-88
2023/03/23 11:52:36;;;;;;;3.47;1.10;;;20.40;99.90;;;;;;4936580;28;20497;-86
2023/03/23 11:55:13;;;;;;;3.60;1.20;;;20.30;99.90;;;;;;4919754;29;20506;-90
2023/03/23 11:57:38;;;;;;;3.08;1.10;;;20.10;98.90;;;;;;4932236;29;20043;-86
2023/03/23 12:00:19;;;;;;;3.30;1.10;;;20.00;99.90;;;;;;4920795;28;20096;-88
2023/03/23 12:03:08;;;;;;;3.40;1.10;;;19.80;99.90;;;;;;4947272;28;20031;-86
2023/03/23 12:06:06;;;;;;;2.70;1.20;;;19.90;99.90;;;;;;4928746;28;20038;-91
2023/03/23 12:08:53;;;;;;;3.42;1.35;;;20.00;99.90;;;;;;4950828;28;20169;-86
2023/03/23 12:11:36;;;;;;;2.93;1.37;;;20.10;99.90;;;;;;4924627;29;20123;-86
2023/03/23 12:14:21;;;;;;;3.42;1.48;;;20.10;99.90;;;;;;4924533;28;20292;-89
2023/03/23 12:16:53;;;;;;;2.72;1.20;;;20.20;99.90;;;;;;4919920;29;20050;-86
2023/03/23 12:19:34;;;;;;;4.90;1.40;;;20.30;99.90;;;;;;4931403;29;20628;-89
2023/03/23 12:22:12;;;;;;;2.03;1.05;;;20.30;99.90;;;;;;4925340;28;20031;-86
2023/03/23 12:25:07;;;;;;;2.73;1.20;;;20.30;99.90;;;;;;4913098;29;20037;-89
2023/03/23 12:28:11;;;;;;;4.13;1.25;;;20.20;98.00;;;;;;4914902;28;20122;-88
2023/03/23 12:30:58;;;;;;;4.07;1.40;;;20.30;98.40;;;;;;4921917;29;20032;-89
2023/03/23 12:33:45;;;;;;;2.88;1.27;;;20.40;99.90;;;;;;4952609;28;20822;-87
2023/03/23 12:36:29;;;;;;;2.45;1.20;;;20.70;99.90;;;;;;4912899;28;21271;-86
2023/03/23 12:39:28;;;;;;;2.80;1.10;;;20.90;99.90;;;;;;4933560;28;20235;-87
2023/03/23 12:42:03;;;;;;;3.22;1.17;;;21.30;99.60;;;;;;4924271;29;20688;-87
2023/03/23 12:44:52;;;;;;;2.92;1.20;;;21.60;99.90;;;;;;4927746;29;20039;-89
2023/03/23 12:47:36;;;;;;;3.15;1.23;;;21.90;99.00;;;;;;4933008;28;20304;-88
2023/03/23 12:50:17;;;;;;;2.83;1.00;;;22.10;99.90;;;;;;4932604;29;20047;-91
2023/03/23 12:52:57;;;;;;;2.83;1.10;;;22.40;99.90;;;;;;4915988;28;20074;-88
2023/03/23 12:56:05;;;;;;;2.30;0.90;;;22.50;99.90;;;;;;4952650;28;20031;-91
2023/03/23 12:58:36;;;;;;;4.18;1.30;;;22.80;99.90;;;;;;4929128;28;20033;-88
2023/03/23 13:01:09;;;;;;;3.25;1.10;;;23.20;99.90;;;;;;4921821;28;20237;-87
2023/03/23 13:03:44;;;;;;;2.15;1.13;;;23.30;99.50;;;;;;4955074;28;20050;-89
2023/03/23 13:06:19;;;;;;;3.33;1.20;;;23.40;92.80;;;;;;4899688;28;20516;-86
2023/03/23 13:09:27;;;;;;;3.65;1.20;;;23.50;97.20;;;;;;4918273;29;20535;-89
2023/03/23 13:11:55;;;;;;;3.65;1.00;;;23.50;92.50;;;;;;4928404;28;20028;-88